Time;durP1;ratioP1;P1;durP2;ratioP2;P2;SDS_P1;SDS_P2;PMS_P1;PMS_P2;Temp;Humidity;BMP_temperature;BMP_pressure;BME280_temperature;BME280_humidity;BME280_pressure;Samples;Min_cycle;Max_cycle;Signal;HPM_P1;HPM_P2
2023/11/18 00:00:17;;;;;;;18.65;9.07;;;;;;;13.61;78.93;101886.88;4938448;28;20542;-64
2023/11/18 00:02:46;;;;;;;20.55;9.77;;;;;;;13.53;78.75;101880.09;4937755;29;20146;-63
2023/11/18 00:05:13;;;;;;;16.90;8.65;;;;;;;13.62;78.42;101871.91;4935589;29;20055;-64
2023/11/18 00:07:41;;;;;;;27.20;9.25;;;;;;;13.62;78.70;101867.19;4937473;29;20075;-63
2023/11/18 00:10:09;;;;;;;17.73;8.65;;;;;;;13.55;78.77;101866.78;4968403;28;20066;-63
2023/11/18 00:12:36;;;;;;;17.48;8.65;;;;;;;13.61;78.71;101878.56;4936228;29;20047;-63
2023/11/18 00:15:05;;;;;;;16.80;8.07;;;;;;;13.66;78.42;101889.56;4937530;29;20062;-63
2023/11/18 00:17:32;;;;;;;25.58;9.50;;;;;;;13.25;80.39;101876.44;4936984;29;20056;-62
2023/11/18 00:19:59;;;;;;;20.00;8.50;;;;;;;13.42;79.67;101868.38;4937364;29;20055;-63
2023/11/18 00:22:27;;;;;;;20.65;8.60;;;;;;;13.28;80.23;101884.16;4938902;29;20051;-64
2023/11/18 00:24:55;;;;;;;18.05;9.15;;;;;;;13.38;80.04;101874.84;4968481;28;20059;-62
2023/11/18 00:27:22;;;;;;;18.25;9.00;;;;;;;13.45;79.75;101889.09;4939330;29;20117;-64
2023/11/18 00:29:49;;;;;;;18.92;9.35;;;;;;;13.49;79.12;101893.72;4938522;29;20463;-63
2023/11/18 00:32:17;;;;;;;19.50;8.80;;;;;;;13.56;79.25;101891.38;4938859;29;20491;-63
2023/11/18 00:34:45;;;;;;;19.55;8.80;;;;;;;13.70;78.87;101896.97;4966924;28;20051;-62
2023/11/18 00:37:12;;;;;;;20.20;8.68;;;;;;;13.79;78.23;101892.31;4949029;29;20055;-63
2023/11/18 00:39:39;;;;;;;20.20;8.45;;;;;;;13.69;78.49;101888.94;4936288;29;20082;-63
2023/11/18 00:42:07;;;;;;;16.55;8.32;;;;;;;13.78;78.22;101882.41;4937198;29;20063;-65
2023/11/18 00:44:34;;;;;;;17.90;8.73;;;;;;;13.64;78.55;101876.00;4936440;29;20054;-63
2023/11/18 00:47:02;;;;;;;16.38;8.13;;;;;;;13.49;79.52;101871.56;4937504;29;20066;-64
2023/11/18 00:49:30;;;;;;;21.92;8.65;;;;;;;13.47;79.63;101865.56;4936844;29;20055;-64
2023/11/18 00:51:57;;;;;;;18.25;8.90;;;;;;;13.63;79.38;101868.84;4936877;29;20048;-64
2023/11/18 00:54:25;;;;;;;23.13;8.75;;;;;;;13.57;79.50;101868.13;4937087;29;20568;-65
2023/11/18 00:56:52;;;;;;;20.08;8.40;;;;;;;13.63;79.32;101863.31;4937171;29;20059;-64
2023/11/18 00:59:20;;;;;;;21.17;9.80;;;;;;;13.68;79.08;101854.91;4920466;29;20055;-65
2023/11/18 01:01:48;;;;;;;17.02;8.60;;;;;;;13.62;79.52;101853.34;4935675;29;20055;-63
2023/11/18 01:04:18;;;;;;;22.15;8.68;;;;;;;13.77;79.11;101855.84;4967328;28;20090;-64
2023/11/18 01:06:45;;;;;;;15.25;8.38;;;;;;;13.73;79.09;101849.25;4937002;29;20059;-64
2023/11/18 01:09:12;;;;;;;17.25;8.32;;;;;;;13.72;79.19;101839.31;4937190;29;20071;-64
2023/11/18 01:11:39;;;;;;;15.82;7.68;;;;;;;13.76;79.23;101839.50;4952189;29;20094;-65
2023/11/18 01:14:26;;;;;;;20.35;7.82;;;;;;;13.63;79.06;101835.63;4936383;29;20071;-63
2023/11/18 01:16:53;;;;;;;17.17;8.45;;;;;;;13.63;79.61;101826.50;4937038;29;20048;-63
2023/11/18 01:19:21;;;;;;;18.88;8.38;;;;;;;13.54;79.75;101835.53;4967555;28;20066;-63
2023/11/18 01:21:49;;;;;;;17.67;7.88;;;;;;;13.46;79.77;101832.63;4936769;29;20495;-64
2023/11/18 01:24:16;;;;;;;19.48;8.13;;;;;;;13.56;80.16;101838.78;4967369;28;20403;-65
2023/11/18 01:26:45;;;;;;;18.08;7.93;;;;;;;13.63;79.74;101832.03;4937051;29;20136;-64
2023/11/18 01:29:13;;;;;;;16.38;7.25;;;;;;;13.74;79.33;101830.72;4935821;29;20056;-64
2023/11/18 01:31:41;;;;;;;17.55;7.78;;;;;;;13.81;78.74;101817.28;4935718;29;20071;-64
2023/11/18 01:34:22;;;;;;;20.17;7.30;;;;;;;13.53;79.71;101814.47;4936737;29;20059;-65
2023/11/18 01:36:50;;;;;;;20.52;7.93;;;;;;;13.35;80.53;101811.81;4936467;29;20059;-64
2023/11/18 01:39:17;;;;;;;19.40;7.50;;;;;;;13.21;81.71;101817.31;4950712;29;20058;-64
2023/11/18 01:41:45;;;;;;;17.45;7.18;;;;;;;12.94;82.79;101821.91;4955527;28;20058;-63
2023/11/18 01:44:15;;;;;;;21.20;8.10;;;;;;;12.80;84.47;101821.03;4976943;28;20427;-64
2023/11/18 01:46:46;;;;;;;22.48;8.43;;;;;;;13.22;83.42;101818.13;4936767;29;20051;-63
2023/11/18 01:49:13;;;;;;;24.63;8.45;;;;;;;13.41;82.04;101811.41;4924515;29;20059;-64
2023/11/18 01:51:45;;;;;;;23.90;9.30;;;;;;;13.26;82.38;101803.41;4951391;29;20070;-65
2023/11/18 01:54:18;;;;;;;16.45;8.32;;;;;;;13.35;82.46;101795.22;4949606;29;20051;-65
2023/11/18 01:56:47;;;;;;;22.85;9.10;;;;;;;12.75;84.24;101780.47;4950245;28;20526;-65
2023/11/18 01:59:19;;;;;;;19.98;9.30;;;;;;;12.77;84.88;101781.00;4935291;29;20057;-64
2023/11/18 02:01:49;;;;;;;19.40;8.73;;;;;;;12.69;85.54;101780.88;4950241;29;20055;-64
2023/11/18 02:04:19;;;;;;;22.65;8.38;;;;;;;12.79;86.32;101772.41;4957497;28;20563;-64
2023/11/18 02:06:51;;;;;;;20.48;8.50;;;;;;;12.42;85.44;101776.88;4950507;29;20059;-63
2023/11/18 02:09:19;;;;;;;19.83;9.10;;;;;;;12.75;86.34;101791.53;4947139;29;20064;-63
2023/11/18 02:11:56;;;;;;;16.40;8.20;;;;;;;12.84;85.81;101786.97;4945948;28;20056;-64
2023/11/18 02:14:26;;;;;;;17.55;7.97;;;;;;;13.03;85.84;101786.94;4918973;29;20507;-64
2023/11/18 02:16:56;;;;;;;14.57;7.70;;;;;;;12.75;84.33;101782.41;4950033;28;20680;-65
2023/11/18 02:19:24;;;;;;;15.23;7.55;;;;;;;13.01;85.48;101784.44;4934753;29;20718;-64
2023/11/18 02:21:56;;;;;;;17.05;7.57;;;;;;;13.01;85.32;101783.63;4935462;29;20056;-64
2023/11/18 02:24:36;;;;;;;18.02;7.13;;;;;;;13.20;84.12;101787.16;4965788;28;20044;-64
2023/11/18 02:27:11;;;;;;;22.02;7.88;;;;;;;13.22;83.29;101777.44;4950188;29;20055;-64
2023/11/18 02:29:43;;;;;;;18.63;7.85;;;;;;;13.27;83.42;101780.13;4934071;29;20051;-64
2023/11/18 02:32:23;;;;;;;19.02;7.10;;;;;;;13.11;82.81;101783.50;4934296;29;20044;-65
2023/11/18 02:34:58;;;;;;;13.65;7.15;;;;;;;13.24;83.38;101797.34;4964930;28;20052;-66
2023/11/18 02:37:27;;;;;;;15.10;7.55;;;;;;;13.00;83.29;101796.66;4967337;28;20412;-65
2023/11/18 02:40:03;;;;;;;19.77;8.10;;;;;;;13.02;83.28;101811.00;4969541;28;20454;-64
2023/11/18 02:42:32;;;;;;;17.80;8.07;;;;;;;13.12;83.40;101810.84;4953164;28;20055;-65
2023/11/18 02:44:59;;;;;;;16.55;7.80;;;;;;;13.18;82.30;101817.91;4969502;28;20066;-64
2023/11/18 02:47:27;;;;;;;18.05;8.00;;;;;;;13.14;84.00;101821.59;4948340;29;20083;-66
2023/11/18 02:50:06;;;;;;;19.17;8.18;;;;;;;12.90;83.76;101821.69;4949742;29;20269;-64
2023/11/18 02:52:34;;;;;;;19.90;8.10;;;;;;;13.15;84.29;101813.00;4935437;29;20044;-64
2023/11/18 02:55:01;;;;;;;17.30;7.80;;;;;;;13.14;83.91;101803.06;4935393;29;20062;-64
2023/11/18 02:57:28;;;;;;;19.70;8.20;;;;;;;12.76;83.79;101815.28;4935796;29;20503;-64
2023/11/18 02:59:56;;;;;;;16.48;7.68;;;;;;;12.59;87.11;101803.16;4946556;29;20051;-64
2023/11/18 03:02:23;;;;;;;16.63;7.65;;;;;;;12.74;85.93;101806.50;4916009;29;20059;-64
2023/11/18 03:04:50;;;;;;;14.82;7.40;;;;;;;12.85;86.29;101799.66;4935015;29;20062;-64
2023/11/18 03:07:17;;;;;;;15.70;7.00;;;;;;;13.11;84.87;101789.81;4935030;29;20563;-64
2023/11/18 03:09:46;;;;;;;16.20;6.80;;;;;;;13.17;83.50;101780.31;4935149;29;20060;-64
2023/11/18 03:12:16;;;;;;;19.48;7.78;;;;;;;13.15;83.63;101774.25;4934702;29;20467;-65
2023/11/18 03:14:43;;;;;;;15.25;7.15;;;;;;;13.15;83.66;101759.59;4949259;29;20377;-64
2023/11/18 03:17:10;;;;;;;14.73;6.40;;;;;;;12.91;83.27;101761.69;4965913;28;20059;-63
2023/11/18 03:19:37;;;;;;;14.57;5.32;;;;;;;13.13;84.15;101745.25;4934690;29;20618;-64
2023/11/18 03:22:05;;;;;;;13.07;5.63;;;;;;;12.90;84.11;101744.25;4935242;29;20730;-66
2023/11/18 03:24:32;;;;;;;11.05;5.13;;;;;;;12.59;85.40;101742.34;4965447;28;20530;-64
2023/11/18 03:26:59;;;;;;;17.25;5.22;;;;;;;12.65;86.45;101736.44;4934739;29;20058;-63
2023/11/18 03:29:27;;;;;;;13.07;5.65;;;;;;;12.86;85.41;101726.66;4949129;29;20064;-65
2023/11/18 03:31:54;;;;;;;9.98;5.38;;;;;;;12.99;85.48;101727.81;4935136;29;20059;-64
2023/11/18 03:34:21;;;;;;;14.77;5.53;;;;;;;12.74;85.31;101720.78;4935166;29;20608;-64
2023/11/18 03:36:49;;;;;;;13.82;5.38;;;;;;;12.53;87.04;101707.63;4935214;29;20063;-64
2023/11/18 03:39:16;;;;;;;16.85;5.38;;;;;;;12.81;85.68;101695.50;4981042;28;20074;-64
2023/11/18 03:41:44;;;;;;;16.08;6.20;;;;;;;12.43;86.81;101690.09;4969334;28;20047;-64
2023/11/18 03:44:14;;;;;;;16.90;6.68;;;;;;;12.19;87.56;101674.75;4951871;28;20055;-64
2023/11/18 03:46:42;;;;;;;16.73;7.30;;;;;;;11.89;89.79;101683.53;4933090;29;20056;-64
2023/11/18 03:49:09;;;;;;;18.08;6.95;;;;;;;12.10;91.65;101695.91;4934162;29;20048;-64
2023/11/18 03:51:37;;;;;;;17.70;6.70;;;;;;;12.14;90.10;101688.63;4970757;28;20046;-64
2023/11/18 03:54:04;;;;;;;12.60;7.32;;;;;;;12.01;91.77;101681.94;4954014;28;20047;-64
2023/11/18 03:56:32;;;;;;;14.77;7.03;;;;;;;12.31;89.70;101689.72;4943218;29;20063;-62
2023/11/18 03:58:59;;;;;;;16.35;6.40;;;;;;;12.26;90.34;101686.22;4938821;29;20047;-62
2023/11/18 04:01:27;;;;;;;15.73;6.22;;;;;;;12.70;88.39;101681.06;4938131;29;20056;-62
2023/11/18 04:03:54;;;;;;;17.85;6.10;;;;;;;12.49;89.14;101677.00;4944975;28;20058;-64
2023/11/18 04:06:22;;;;;;;17.20;6.50;;;;;;;12.76;87.96;101671.53;4938332;29;20051;-62
2023/11/18 04:08:50;;;;;;;17.50;6.85;;;;;;;12.80;87.21;101667.03;4938779;29;20055;-62
2023/11/18 04:11:17;;;;;;;13.13;5.55;;;;;;;12.64;86.49;101673.97;4936222;29;20052;-62
2023/11/18 04:13:44;;;;;;;18.35;6.30;;;;;;;12.46;88.26;101669.31;4937565;29;20063;-62
2023/11/18 04:16:16;;;;;;;16.35;5.93;;;;;;;12.43;89.08;101678.19;4937397;29;20068;-62
2023/11/18 04:18:43;;;;;;;17.00;5.88;;;;;;;12.44;87.55;101680.69;4932491;29;20052;-63
2023/11/18 04:21:12;;;;;;;18.40;7.18;;;;;;;12.78;88.29;101662.94;4934089;29;20052;-62
2023/11/18 04:23:41;;;;;;;15.10;6.03;;;;;;;12.85;87.96;101664.16;4918755;29;20052;-62
2023/11/18 04:26:09;;;;;;;12.73;6.30;;;;;;;12.62;87.73;101662.41;4919945;29;20056;-63
2023/11/18 04:28:36;;;;;;;13.85;6.25;;;;;;;12.45;88.49;101662.97;4966049;28;20056;-63
2023/11/18 04:31:07;;;;;;;15.10;6.22;;;;;;;12.90;87.77;101652.22;4925633;29;20059;-63
2023/11/18 04:33:34;;;;;;;;;;;;;;;13.00;85.83;101665.84;4938635;29;20047;-63
2023/11/18 04:36:01;;;;;;;19.13;5.90;;;;;;;12.75;85.53;101672.66;4952454;29;19927;-62
2023/11/18 04:38:29;;;;;;;14.23;5.70;;;;;;;12.89;86.54;101656.91;4937871;29;20047;-63
2023/11/18 04:40:57;;;;;;;19.08;5.72;;;;;;;12.94;85.51;101667.03;4937414;29;20365;-63
2023/11/18 04:43:24;;;;;;;17.77;6.22;;;;;;;13.07;85.32;101663.50;4938652;29;20052;-63
2023/11/18 04:46:07;;;;;;;14.98;5.65;;;;;;;13.22;84.58;101669.56;4937953;29;20051;-63
2023/11/18 04:48:35;;;;;;;13.07;5.43;;;;;;;13.24;84.51;101660.94;4937833;29;20058;-63
2023/11/18 04:51:07;;;;;;;18.60;5.82;;;;;;;12.94;84.64;101661.50;4969785;28;20063;-62
2023/11/18 04:53:35;;;;;;;12.20;4.72;;;;;;;12.52;85.33;101664.53;4939638;29;20047;-63
2023/11/18 04:56:02;;;;;;;10.82;4.53;;;;;;;12.66;87.36;101662.63;4937466;29;20066;-63
2023/11/18 04:58:30;;;;;;;14.23;5.18;;;;;;;12.65;86.06;101659.03;4935622;29;20059;-62
2023/11/18 05:00:57;;;;;;;12.18;4.90;;;;;;;12.59;87.66;101657.47;4951215;29;20055;-64
2023/11/18 05:03:24;;;;;;;13.95;5.30;;;;;;;12.62;87.34;101659.66;4937071;29;20047;-63
2023/11/18 05:05:52;;;;;;;17.13;5.30;;;;;;;12.75;87.87;101647.78;4937289;29;20051;-64
2023/11/18 05:08:25;;;;;;;12.25;4.90;;;;;;;12.70;87.22;101649.81;4937539;29;20089;-63
2023/11/18 05:10:54;;;;;;;15.85;4.78;;;;;;;12.97;87.33;101649.88;4935578;29;20051;-64
2023/11/18 05:13:21;;;;;;;18.73;5.07;;;;;;;13.12;87.06;101644.88;4937207;29;20082;-64
2023/11/18 05:15:49;;;;;;;13.70;5.32;;;;;;;12.89;86.39;101643.09;4936868;29;20055;-63
2023/11/18 05:18:17;;;;;;;11.07;4.97;;;;;;;12.89;87.65;101643.09;4937022;29;20062;-63
2023/11/18 05:20:45;;;;;;;13.38;5.32;;;;;;;12.32;89.51;101638.06;4951429;29;20055;-64
2023/11/18 05:23:12;;;;;;;15.88;5.22;;;;;;;12.26;92.98;101631.81;4936421;29;20058;-64
2023/11/18 05:25:43;;;;;;;18.65;5.40;;;;;;;12.47;91.80;101629.50;4936069;29;20079;-63
2023/11/18 05:28:11;;;;;;;12.07;5.10;;;;;;;12.69;90.45;101615.00;4935901;28;20055;-63
2023/11/18 05:30:42;;;;;;;14.18;5.32;;;;;;;12.32;91.03;101613.22;4933846;29;20062;-63
2023/11/18 05:33:14;;;;;;;16.05;4.97;;;;;;;12.31;91.96;101612.38;4950116;29;20056;-63
2023/11/18 05:35:48;;;;;;;11.80;5.47;;;;;;;12.12;93.42;101610.78;4936026;29;20723;-62
2023/11/18 05:38:26;;;;;;;15.13;5.25;;;;;;;12.18;93.19;101613.19;4945412;29;20077;-62
2023/11/18 05:40:56;;;;;;;15.63;5.13;;;;;;;12.03;92.12;101615.38;4951794;28;20055;-63
2023/11/18 05:43:39;;;;;;;14.30;5.38;;;;;;;11.64;94.86;101610.19;4951144;28;20067;-63
2023/11/18 05:46:25;;;;;;;15.00;5.55;;;;;;;11.97;97.49;101605.53;4935688;29;20364;-63
2023/11/18 05:48:53;;;;;;;14.00;5.15;;;;;;;11.83;95.04;101596.38;4934821;29;20565;-63
2023/11/18 05:51:22;;;;;;;13.02;4.90;;;;;;;11.84;97.53;101601.59;4934990;29;20059;-63
2023/11/18 05:53:50;;;;;;;13.50;4.90;;;;;;;11.57;99.22;101598.66;4935525;29;20135;-64
2023/11/18 05:56:18;;;;;;;9.85;4.65;;;;;;;11.71;97.87;101599.59;4935373;29;20047;-63
2023/11/18 05:58:46;;;;;;;19.63;5.30;;;;;;;11.59;97.74;101579.06;4965966;28;20059;-63
2023/11/18 06:01:14;;;;;;;15.30;4.57;;;;;;;11.58;98.93;101575.47;4936272;29;20055;-64
2023/11/18 06:03:42;;;;;;;9.20;4.07;;;;;;;11.78;98.96;101579.88;4935913;29;20035;-62
2023/11/18 06:06:11;;;;;;;13.30;4.07;;;;;;;11.68;99.02;101577.28;4950761;29;20059;-64
2023/11/18 06:08:41;;;;;;;12.60;4.05;;;;;;;11.46;98.34;101566.00;4936209;29;20058;-64
2023/11/18 06:11:12;;;;;;;9.75;3.60;;;;;;;11.59;100.00;101565.25;4965258;28;20059;-63
2023/11/18 06:13:48;;;;;;;11.60;3.92;;;;;;;11.53;99.74;101561.75;4950723;29;20059;-64
2023/11/18 06:16:17;;;;;;;12.88;3.88;;;;;;;11.51;100.00;101564.00;4935912;29;20498;-64
2023/11/18 06:18:44;;;;;;;11.32;3.70;;;;;;;11.52;100.00;101581.38;4934533;29;20051;-65
2023/11/18 06:21:16;;;;;;;11.70;4.13;;;;;;;11.70;99.84;101573.09;4935274;29;20055;-65
2023/11/18 06:23:45;;;;;;;14.52;4.50;;;;;;;11.20;99.76;101565.56;4935667;29;20052;-63
2023/11/18 06:26:14;;;;;;;10.90;4.03;;;;;;;11.62;100.00;101551.69;4935431;29;20452;-64
2023/11/18 06:28:43;;;;;;;13.35;3.95;;;;;;;11.07;100.00;101549.75;4933893;29;20435;-65
2023/11/18 06:31:11;;;;;;;13.13;4.07;;;;;;;10.70;100.00;101555.19;4935507;29;20047;-68
2023/11/18 06:33:43;;;;;;;12.43;3.85;;;;;;;11.01;100.00;101549.00;4949623;29;20680;-64
2023/11/18 06:36:14;;;;;;;17.08;4.43;;;;;;;11.01;100.00;101532.47;4935278;29;20523;-65
2023/11/18 06:38:41;;;;;;;10.43;4.25;;;;;;;10.92;100.00;101536.97;4950074;29;20055;-64
2023/11/18 06:41:11;;;;;;;10.63;4.03;;;;;;;11.17;100.00;101541.34;4954190;29;20061;-63
2023/11/18 06:46:20;;;;;;;13.15;4.13;;;;;;;11.09;100.00;101531.78;4954059;29;20054;-64
2023/11/18 06:48:57;;;;;;;14.38;4.18;;;;;;;11.17;100.00;101538.56;4938055;29;20058;-64
2023/11/18 06:51:27;;;;;;;13.57;4.15;;;;;;;11.16;100.00;101534.16;4936411;29;20051;-64
2023/11/18 06:53:57;;;;;;;;;;;;;;;11.45;100.00;101532.09;4935180;29;20051;-65
2023/11/18 06:56:25;;;;;;;11.95;3.85;;;;;;;11.01;100.00;101523.34;4934682;29;19938;-64
2023/11/18 06:58:55;;;;;;;11.65;3.90;;;;;;;11.58;100.00;101511.16;4934207;29;20068;-65
2023/11/18 07:01:23;;;;;;;12.93;3.97;;;;;;;11.34;100.00;101503.00;4935858;28;20056;-65
2023/11/18 07:03:52;;;;;;;13.10;4.90;;;;;;;11.37;100.00;101509.88;4935520;29;20055;-65
2023/11/18 07:06:26;;;;;;;11.40;6.18;;;;;;;11.61;100.00;101507.84;4934838;29;20055;-65
2023/11/18 07:08:55;;;;;;;18.05;8.68;;;;;;;11.73;100.00;101514.56;4935720;28;20063;-64
2023/11/18 07:11:22;;;;;;;12.88;3.88;;;;;;;11.40;100.00;101517.56;4935308;29;20055;-68
2023/11/18 07:13:49;;;;;;;17.80;5.68;;;;;;;11.55;100.00;101520.06;4950033;29;20474;-64
2023/11/18 07:16:18;;;;;;;15.25;7.28;;;;;;;11.63;100.00;101525.72;4966386;28;20059;-61
2023/11/18 07:18:46;;;;;;;9.27;3.63;;;;;;;11.73;100.00;101510.97;4934754;29;20071;-63
2023/11/18 07:21:14;;;;;;;7.97;3.20;;;;;;;11.78;100.00;101500.69;4935189;29;20055;-63
2023/11/18 07:23:42;;;;;;;8.00;3.13;;;;;;;12.05;100.00;101500.72;4965731;28;20052;-63
2023/11/18 07:26:13;;;;;;;8.10;2.90;;;;;;;11.85;100.00;101498.34;4934973;29;20059;-63
2023/11/18 07:28:41;;;;;;;14.00;3.80;;;;;;;11.94;100.00;101506.75;4934813;29;20059;-64
2023/11/18 07:31:09;;;;;;;10.13;3.22;;;;;;;11.55;100.00;101518.13;4937574;29;20051;-64
2023/11/18 07:33:36;;;;;;;6.72;3.05;;;;;;;11.34;100.00;101516.81;4938349;29;20052;-64
2023/11/18 07:36:06;;;;;;;10.50;2.80;;;;;;;11.67;100.00;101518.50;4953196;29;20054;-64
2023/11/18 07:38:34;;;;;;;9.63;3.30;;;;;;;11.37;100.00;101523.69;4967443;28;20047;-64
2023/11/18 07:41:02;;;;;;;9.77;2.90;;;;;;;11.72;100.00;101526.72;4972031;28;20059;-64
2023/11/18 07:43:30;;;;;;;7.93;4.47;;;;;;;11.10;100.00;101516.06;4958106;28;20059;-64
2023/11/18 07:45:57;;;;;;;8.93;3.53;;;;;;;11.49;100.00;101518.53;4956743;29;20077;-63
2023/11/18 07:48:25;;;;;;;6.60;2.75;;;;;;;11.25;100.00;101515.84;4942563;29;20062;-64
2023/11/18 07:50:52;;;;;;;6.97;2.97;;;;;;;11.78;100.00;101517.22;4938595;29;20055;-64
2023/11/18 07:53:19;;;;;;;7.13;2.53;;;;;;;11.83;100.00;101521.84;4969125;28;20075;-64
2023/11/18 07:55:47;;;;;;;5.78;2.78;;;;;;;12.27;100.00;101519.38;4938102;29;20043;-64
2023/11/18 07:58:15;;;;;;;7.32;2.78;;;;;;;12.09;100.00;101518.34;4967690;28;20064;-64
2023/11/18 08:00:43;;;;;;;7.13;2.80;;;;;;;11.92;100.00;101512.56;4918133;29;20059;-64
2023/11/18 08:03:14;;;;;;;6.07;2.60;;;;;;;11.81;100.00;101510.28;4925762;29;20062;-64
2023/11/18 08:05:43;;;;;;;7.70;2.90;;;;;;;11.81;100.00;101507.50;4918183;29;20052;-64
2023/11/18 08:08:12;;;;;;;6.40;2.70;;;;;;;11.80;100.00;101503.13;4918784;29;20384;-63
2023/11/18 08:10:40;;;;;;;6.78;2.70;;;;;;;12.24;100.00;101511.69;4954516;28;20055;-65
2023/11/18 08:13:09;;;;;;;10.48;2.30;;;;;;;12.28;100.00;101512.72;4938327;29;20056;-63
2023/11/18 08:15:41;;;;;;;5.00;2.72;;;;;;;11.94;100.00;101526.06;4937870;29;20067;-63
2023/11/18 08:18:10;;;;;;;7.18;2.50;;;;;;;12.13;100.00;101546.16;4951562;28;20174;-63
2023/11/18 08:20:37;;;;;;;4.50;1.92;;;;;;;12.58;99.90;101537.00;4937806;29;20060;-63
2023/11/18 08:23:05;;;;;;;10.40;6.50;;;;;;;12.80;97.15;101514.97;4952987;28;20451;-64
2023/11/18 08:25:39;;;;;;;9.95;6.15;;;;;;;12.77;96.16;101509.25;4952618;29;20059;-64
2023/11/18 08:28:08;;;;;;;4.85;2.65;;;;;;;12.35;96.72;101513.13;4967494;28;20062;-63
2023/11/18 08:30:37;;;;;;;6.70;2.13;;;;;;;12.52;98.62;101513.34;4936507;29;20052;-64
2023/11/18 08:33:08;;;;;;;4.28;2.03;;;;;;;12.54;98.25;101501.97;4937459;29;20064;-64
2023/11/18 08:35:36;;;;;;;3.53;1.95;;;;;;;12.79;96.48;101498.69;4968455;28;20074;-64
2023/11/18 08:38:04;;;;;;;4.50;1.88;;;;;;;12.74;96.14;101509.88;4947765;29;20046;-63
2023/11/18 08:40:31;;;;;;;6.43;2.20;;;;;;;12.75;97.34;101492.13;4956659;28;20055;-63
2023/11/18 08:42:58;;;;;;;5.78;2.10;;;;;;;12.38;98.02;101488.47;4956172;29;20526;-63
2023/11/18 08:45:32;;;;;;;5.20;1.85;;;;;;;11.90;100.00;101498.25;4957299;28;20072;-63
2023/11/18 08:48:01;;;;;;;5.05;2.10;;;;;;;12.13;100.00;101496.44;4935764;29;20056;-63
2023/11/18 08:50:30;;;;;;;15.50;8.63;;;;;;;12.43;100.00;101495.84;4937231;29;20059;-64
2023/11/18 08:52:58;;;;;;;5.47;2.33;;;;;;;12.74;98.28;101493.28;4984805;28;20066;-64
2023/11/18 08:55:38;;;;;;;6.82;2.08;;;;;;;12.77;96.46;101476.91;4952202;28;20036;-64
2023/11/18 08:58:27;;;;;;;4.97;2.05;;;;;;;12.46;97.33;101470.38;4937056;29;20060;-63
2023/11/18 09:01:05;;;;;;;9.35;2.92;;;;;;;12.40;99.42;101468.84;4935866;29;20059;-63
2023/11/18 09:03:36;;;;;;;5.00;2.28;;;;;;;12.04;100.00;101457.69;4972746;28;20070;-63
2023/11/18 09:06:06;;;;;;;5.13;2.25;;;;;;;12.21;100.00;101452.38;4936849;29;20052;-64
2023/11/18 09:08:42;;;;;;;5.60;2.17;;;;;;;12.49;99.58;101453.19;4951541;29;20063;-64
2023/11/18 09:11:14;;;;;;;4.95;1.92;;;;;;;12.83;98.45;101458.25;4936851;29;20059;-64
2023/11/18 09:13:44;;;;;;;4.82;1.80;;;;;;;12.69;97.42;101457.47;4937034;29;20067;-63
2023/11/18 09:16:12;;;;;;;5.68;2.03;;;;;;;12.88;96.88;101458.97;4936652;29;20072;-64
2023/11/18 09:18:44;;;;;;;4.72;1.90;;;;;;;12.85;95.86;101461.53;4935839;29;20071;-64
2023/11/18 09:21:19;;;;;;;4.85;2.13;;;;;;;12.81;97.08;101469.63;4937885;29;20058;-63
2023/11/18 09:23:47;;;;;;;7.28;2.22;;;;;;;12.70;97.82;101468.19;4936956;29;20496;-63
2023/11/18 09:26:30;;;;;;;6.00;2.25;;;;;;;13.22;96.54;101472.28;4936419;29;20056;-65
2023/11/18 09:29:01;;;;;;;4.75;2.13;;;;;;;13.28;95.19;101468.28;4965828;28;20056;-64
2023/11/18 09:31:28;;;;;;;5.25;2.35;;;;;;;13.05;96.27;101448.09;4936252;29;20545;-64
2023/11/18 09:33:57;;;;;;;5.38;1.95;;;;;;;13.32;95.81;101450.75;4935244;29;20055;-64
2023/11/18 09:36:28;;;;;;;4.43;1.92;;;;;;;13.06;95.41;101443.34;4936334;29;20058;-64
2023/11/18 09:38:56;;;;;;;8.18;2.45;;;;;;;13.25;95.85;101439.28;4953292;29;20671;-63
2023/11/18 09:41:26;;;;;;;3.88;2.10;;;;;;;13.53;94.03;101445.50;4944312;29;20051;-65
2023/11/18 09:43:56;;;;;;;3.78;1.90;;;;;;;13.52;93.16;101432.81;4935969;29;20078;-64
2023/11/18 09:46:26;;;;;;;5.45;2.25;;;;;;;13.70;93.39;101430.97;4936036;29;20055;-64
2023/11/18 09:49:38;;;;;;;4.13;1.95;;;;;;;13.51;93.09;101423.69;4934029;29;20058;-64
2023/11/18 09:52:07;;;;;;;4.38;2.05;;;;;;;13.65;93.77;101422.81;4926974;29;20059;-62
2023/11/18 09:54:41;;;;;;;4.57;1.80;;;;;;;13.57;93.41;101429.91;4950355;29;20051;-62
2023/11/18 09:57:15;;;;;;;4.07;2.17;;;;;;;13.72;93.43;101439.78;4935658;29;20043;-62
2023/11/18 09:59:54;;;;;;;6.80;2.10;;;;;;;13.73;92.87;101428.41;4957227;28;20590;-62
2023/11/18 10:02:28;;;;;;;4.40;1.60;;;;;;;13.65;93.64;101420.03;4964714;28;20048;-62
2023/11/18 10:05:00;;;;;;;3.72;1.48;;;;;;;13.77;93.32;101409.19;4966458;28;20063;-62
2023/11/18 10:07:32;;;;;;;5.70;1.75;;;;;;;13.83;93.22;101403.19;4929026;29;20054;-62
2023/11/18 10:10:01;;;;;;;4.57;1.88;;;;;;;13.92;92.15;101397.69;4936554;29;20055;-62
2023/11/18 10:12:29;;;;;;;6.75;1.90;;;;;;;13.88;92.31;101394.75;4948889;28;20060;-62
2023/11/18 10:14:58;;;;;;;4.07;1.58;;;;;;;14.04;91.72;101392.38;4932173;29;20411;-61
2023/11/18 10:17:26;;;;;;;5.45;2.35;;;;;;;14.28;90.78;101393.63;4951937;29;20055;-61
2023/11/18 10:19:56;;;;;;;8.80;2.83;;;;;;;14.32;89.96;101391.84;4965395;28;20063;-61
2023/11/18 10:22:27;;;;;;;9.60;4.13;;;;;;;14.29;89.75;101386.97;4934800;29;20048;-63
2023/11/18 10:24:56;;;;;;;9.73;2.10;;;;;;;14.44;89.37;101374.59;4934708;29;20080;-63
2023/11/18 10:27:27;;;;;;;5.20;1.70;;;;;;;14.26;89.12;101357.09;4935584;29;20058;-61
2023/11/18 10:30:02;;;;;;;6.00;2.17;;;;;;;14.29;90.30;101352.88;4932299;29;20070;-62
2023/11/18 10:32:34;;;;;;;4.47;2.22;;;;;;;14.35;89.34;101338.53;4931843;29;20051;-62
2023/11/18 10:35:05;;;;;;;4.05;2.10;;;;;;;14.36;88.77;101345.75;4938073;29;20058;-61
2023/11/18 10:37:32;;;;;;;5.18;2.22;;;;;;;14.25;89.90;101338.00;4936323;29;20051;-61
2023/11/18 10:40:04;;;;;;;6.55;3.80;;;;;;;14.19;90.22;101322.69;4933412;29;20063;-61
2023/11/18 10:42:32;;;;;;;7.45;4.57;;;;;;;14.28;90.46;101323.53;4937696;29;20055;-62
2023/11/18 10:45:03;;;;;;;8.27;2.20;;;;;;;13.93;91.31;101325.38;4949660;28;20070;-61
2023/11/18 10:47:41;;;;;;;5.65;2.10;;;;;;;14.19;90.88;101328.22;4933001;29;20054;-61
2023/11/18 10:50:12;;;;;;;8.93;2.45;;;;;;;14.31;90.69;101318.16;4933892;29;20056;-60
2023/11/18 10:52:40;;;;;;;3.88;1.80;;;;;;;13.67;91.68;101320.88;4939596;29;20043;-61
2023/11/18 10:55:11;;;;;;;4.78;2.28;;;;;;;13.93;92.36;101319.81;4933159;29;20055;-61
2023/11/18 10:57:41;;;;;;;7.30;2.17;;;;;;;13.74;94.67;101310.97;4933750;29;20078;-60
2023/11/18 11:00:14;;;;;;;7.15;2.60;;;;;;;14.09;93.25;101328.50;4962679;28;20630;-61
2023/11/18 11:02:42;;;;;;;7.47;2.38;;;;;;;14.15;92.45;101316.97;4932044;29;20048;-60
2023/11/18 11:05:15;;;;;;;4.95;1.88;;;;;;;14.37;90.91;101327.94;4931084;29;20052;-60
2023/11/18 11:07:49;;;;;;;4.55;1.95;;;;;;;14.37;90.23;101329.91;4932118;29;20637;-61
2023/11/18 11:10:24;;;;;;;6.13;2.10;;;;;;;14.46;90.27;101344.59;4932636;29;20059;-60
2023/11/18 11:12:54;;;;;;;4.28;2.17;;;;;;;14.57;89.35;101348.69;4948979;28;20055;-61
2023/11/18 11:15:31;;;;;;;4.30;1.65;;;;;;;14.42;88.92;101340.81;4931007;29;20051;-61
2023/11/18 11:18:26;;;;;;;5.63;2.10;;;;;;;14.61;89.26;101331.06;4932708;28;20065;-62
2023/11/18 11:21:15;;;;;;;5.30;1.90;;;;;;;14.61;89.29;101322.75;4921561;29;20642;-61
2023/11/18 11:23:55;;;;;;;6.43;1.83;;;;;;;14.82;89.24;101339.56;4914633;29;20055;-61
2023/11/18 11:26:39;;;;;;;8.40;2.05;;;;;;;14.88;88.86;101337.44;4933408;29;20056;-60
2023/11/18 11:29:28;;;;;;;5.68;2.08;;;;;;;14.82;90.12;101338.75;4928022;29;20055;-62
2023/11/18 11:32:18;;;;;;;4.88;1.90;;;;;;;14.54;89.54;101333.50;4962108;28;20051;-61
2023/11/18 11:34:53;;;;;;;4.32;2.33;;;;;;;14.85;91.72;101336.16;4932970;29;20047;-61